Time;durP1;ratioP1;P1;durP2;ratioP2;P2;SDS_P1;SDS_P2;PMS_P1;PMS_P2;Temp;Humidity;BMP_temperature;BMP_pressure;BME280_temperature;BME280_humidity;BME280_pressure;Samples;Min_cycle;Max_cycle;Signal;HPM_P1;HPM_P2
2023/02/20 00:00:21;;;;;;;;;;;;;;;;;;5002256;28;4529;-57
2023/02/20 00:02:46;;;;;;;;;;;;;;;;;;5004898;28;4535;-57
2023/02/20 00:05:12;;;;;;;;;;;;;;;;;;4999855;28;2361;-57
2023/02/20 00:07:37;;;;;;;;;;;;;;;;;;5005618;28;5048;-57
2023/02/20 00:10:02;;;;;;;;;;;;;;;;;;5007987;28;5031;-57
2023/02/20 00:12:28;;;;;;;;;;;;;;;;;;5006010;28;5023;-57
2023/02/20 00:14:53;;;;;;;;;;;;;;;;;;5002767;28;4670;-56
2023/02/20 00:17:18;;;;;;;;;;;;;;;;;;5004780;28;3337;-56
2023/02/20 00:19:44;;;;;;;;;;;;;;;;;;5004773;28;5076;-56
2023/02/20 00:22:09;;;;;;;;;;;;;;;;;;4997236;28;5204;-57
2023/02/20 00:24:35;;;;;;;;;;;;;;;;;;5006072;28;5153;-57
2023/02/20 00:27:00;;;;;;;;;;;;;;;;;;4999383;28;4681;-56
2023/02/20 00:29:25;;;;;;;;;;;;;;;;;;4997390;28;4597;-57
2023/02/20 00:31:54;;;;;;;;;;;;;;;;;;4996285;28;4448;-56
2023/02/20 00:34:20;;;;;;;;;;;;;;;;;;4999928;28;4980;-57
2023/02/20 00:36:45;;;;;;;;;;;;;;;;;;5002668;28;5047;-57
2023/02/20 00:39:11;;;;;;;;;;;;;;;;;;5004271;28;4689;-57
2023/02/20 00:41:36;;;;;;;;;;;;;;;;;;4989076;28;3291;-57
2023/02/20 00:44:01;;;;;;;;;;;;;;;;;;5003749;28;5098;-57
2023/02/20 00:46:27;;;;;;;;;;;;;;;;;;4999263;28;5019;-57
2023/02/20 00:48:52;;;;;;;;;;;;;;;;;;4999079;28;5384;-56
2023/02/20 00:51:17;;;;;;;;;;;;;;;;;;5001614;28;5331;-57
2023/02/20 00:53:43;;;;;;;;;;;;;;;;;;4998906;28;3341;-57
2023/02/20 00:56:08;;;;;;;;;;;;;;;;;;5002424;28;5032;-57
2023/02/20 00:58:33;;;;;;;;;;;;;;;;;;5000868;28;4638;-57
2023/02/20 01:00:58;;;;;;;;;;;;;;;;;;4983850;28;5269;-57
2023/02/20 01:03:24;;;;;;;;;;;;;;;;;;4999121;28;5052;-57
2023/02/20 01:05:49;;;;;;;;;;;;;;;;;;4998836;28;5062;-57
2023/02/20 01:08:14;;;;;;;;;;;;;;;;;;4998379;28;3511;-57
2023/02/20 01:10:39;;;;;;;;;;;;;;;;;;5001501;28;5262;-57
2023/02/20 01:13:05;;;;;;;;;;;;;;;;;;4996551;28;5177;-57
2023/02/20 01:15:30;;;;;;;;;;;;;;;;;;5002715;28;5006;-57
2023/02/20 01:17:55;;;;;;;;;;;;;;;;;;5001001;28;4653;-57
2023/02/20 01:20:20;;;;;;;;;;;;;;;;;;5004919;28;3594;-57
2023/02/20 01:22:46;;;;;;;;;;;;;;;;;;5000636;28;5079;-57
2023/02/20 01:25:11;;;;;;;;;;;;;;;;;;5001989;28;5161;-57
2023/02/20 01:27:36;;;;;;;;;;;;;;;;;;4995644;28;5332;-57
2023/02/20 01:30:01;;;;;;;;;;;;;;;;;;4995509;28;4900;-57
2023/02/20 01:32:27;;;;;;;;;;;;;;;;;;4999795;28;3589;-57
2023/02/20 01:34:52;;;;;;;;;;;;;;;;;;5000089;28;4967;-56
2023/02/20 01:37:18;;;;;;;;;;;;;;;;;;5003601;28;5146;-57
2023/02/20 01:39:45;;;;;;;;;;;;;;;;;;4999588;28;4658;-57
2023/02/20 01:42:12;;;;;;;;;;;;;;;;;;5001109;28;5172;-57
2023/02/20 01:44:39;;;;;;;;;;;;;;;;;;5002525;28;3434;-57
2023/02/20 01:47:07;;;;;;;;;;;;;;;;;;5003528;28;4920;-56
2023/02/20 01:49:34;;;;;;;;;;;;;;;;;;4990624;28;5053;-57
2023/02/20 01:52:02;;;;;;;;;;;;;;;;;;5009084;28;5013;-56
2023/02/20 01:54:27;;;;;;;;;;;;;;;;;;5006652;28;5116;-57
2023/02/20 01:56:53;;;;;;;;;;;;;;;;;;5005637;28;5279;-57
2023/02/20 01:59:19;;;;;;;;;;;;;;;;;;5001214;28;3373;-57
2023/02/20 02:01:44;;;;;;;;;;;;;;;;;;5006446;28;5039;-57
2023/02/20 02:04:09;;;;;;;;;;;;;;;;;;5004036;28;5019;-57
2023/02/20 02:06:36;;;;;;;;;;;;;;;;;;5008207;28;5025;-57
2023/02/20 02:09:02;;;;;;;;;;;;;;;;;;5007532;28;4995;-57
2023/02/20 02:11:28;;;;;;;;;;;;;;;;;;4991789;28;3418;-57
2023/02/20 02:13:53;;;;;;;;;;;;;;;;;;4986705;28;5291;-57
2023/02/20 02:16:30;;;;;;;;;;;;;;;;;;5000778;28;5315;-57
2023/02/20 02:18:55;;;;;;;;;;;;;;;;;;5006184;28;5026;-56
2023/02/20 02:21:40;;;;;;;;;;;;;;;;;;5012200;28;5047;-56
2023/02/20 02:24:11;;;;;;;;;;;;;;;;;;5002734;28;5159;-56
2023/02/20 02:26:49;;;;;;;;;;;;;;;;;;5002644;28;3339;-56
2023/02/20 02:29:23;;;;;;;;;;;;;;;;;;5001897;28;4631;-56
2023/02/20 02:32:04;;;;;;;;;;;;;;;;;;5007381;28;4548;-56
2023/02/20 02:34:32;;;;;;;;;;;;;;;;;;4991726;28;5159;-56
2023/02/20 02:37:04;;;;;;;;;;;;;;;;;;5003515;28;5086;-56
2023/02/20 02:39:32;;;;;;;;;;;;;;;;;;5005243;28;4474;-56
2023/02/20 02:42:01;;;;;;;;;;;;;;;;;;5003447;28;5079;-56
2023/02/20 02:44:50;;;;;;;;;;;;;;;;;;4990769;28;3732;-57
2023/02/20 02:47:17;;;;;;;;;;;;;;;;;;4997228;28;4918;-57
2023/02/20 02:49:45;;;;;;;;;;;;;;;;;;4983229;28;5116;-57
2023/02/20 02:52:10;;;;;;;;;;;;;;;;;;4999214;28;5150;-57
2023/02/20 02:54:36;;;;;;;;;;;;;;;;;;4981096;28;4782;-57
2023/02/20 02:57:19;;;;;;;;;;;;;;;;;;4987759;28;5027;-57
2023/02/20 02:59:45;;;;;;;;;;;;;;;;;;4989577;28;5266;-55
2023/02/20 03:02:10;;;;;;;;;;;;;;;;;;4987505;28;3450;-57
2023/02/20 03:04:37;;;;;;;;;;;;;;;;;;4987397;28;4461;-57
2023/02/20 03:07:06;;;;;;;;;;;;;;;;;;4998165;28;5090;-57
2023/02/20 03:09:33;;;;;;;;;;;;;;;;;;4984435;28;5171;-57
2023/02/20 03:11:58;;;;;;;;;;;;;;;;;;4984800;28;4495;-57
2023/02/20 03:17:14;;;;;;;;;;;;;;;;;;4989189;28;4679;-57
2023/02/20 03:19:39;;;;;;;;;;;;;;;;;;4980612;28;4466;-57
2023/02/20 03:22:05;;;;;;;;;;;;;;;;;;4980683;28;5126;-57
2023/02/20 03:24:30;;;;;;;;;;;;;;;;;;4977761;28;5070;-56
2023/02/20 03:26:55;;;;;;;;;;;;;;;;;;4988093;28;4994;-57
2023/02/20 03:29:29;;;;;;;;;;;;;;;;;;4987188;28;4665;-57
2023/02/20 03:45:37;;;;;;;;;;;;;;;;;;4986122;28;5046;-57
2023/02/20 03:48:04;;;;;;;;;;;;;;;;;;4982793;28;4586;-57
2023/02/20 03:50:30;;;;;;;;;;;;;;;;;;4987247;28;1222;-57
2023/02/20 03:52:55;;;;;;;;;;;;;;;;;;4982257;28;4756;-57
2023/02/20 03:55:20;;;;;;;;;;;;;;;;;;4984689;28;4640;-57
2023/02/20 03:57:47;;;;;;;;;;;;;;;;;;4981149;28;5068;-57
2023/02/20 04:00:14;;;;;;;;;;;;;;;;;;4977309;28;4770;-57
2023/02/20 04:02:41;;;;;;;;;;;;;;;;;;4983005;28;3434;-57
2023/02/20 04:05:07;;;;;;;;;;;;;;;;;;4982591;28;5046;-56
2023/02/20 04:07:38;;;;;;;;;;;;;;;;;;4993109;28;4615;-57
2023/02/20 04:10:05;;;;;;;;;;;;;;;;;;4977674;28;4750;-56
2023/02/20 04:12:31;;;;;;;;;;;;;;;;;;4992483;28;5034;-56
2023/02/20 04:14:57;;;;;;;;;;;;;;;;;;4976647;28;4539;-56
2023/02/20 04:17:26;;;;;;;;;;;;;;;;;;4985481;28;3347;-57
2023/02/20 04:19:52;;;;;;;;;;;;;;;;;;4978753;28;4568;-56
2023/02/20 04:22:18;;;;;;;;;;;;;;;;;;4982224;28;5041;-57
2023/02/20 04:24:46;;;;;;;;;;;;;;;;;;4965997;28;5231;-56
2023/02/20 04:27:12;;;;;;;;;;;;;;;;;;4981513;28;5023;-57
2023/02/20 04:29:37;;;;;;;;;;;;;;;;;;4985428;28;4562;-56
2023/02/20 04:32:02;;;;;;;;;;;;;;;;;;4982782;28;5007;-57
2023/02/20 04:34:28;;;;;;;;;;;;;;;;;;4984166;28;5203;-57
2023/02/20 04:36:55;;;;;;;;;;;;;;;;;;4965966;28;4521;-56
2023/02/20 04:39:21;;;;;;;;;;;;;;;;;;4978506;28;4629;-56
2023/02/20 04:41:46;;;;;;;;;;;;;;;;;;4981884;28;5615;-56
2023/02/20 04:46:55;;;;;;;;;;;;;;;;;;4980840;28;5234;-55
2023/02/20 04:49:20;;;;;;;;;;;;;;;;;;4985127;28;5094;-56
2023/02/20 04:51:45;;;;;;;;;;;;;;;;;;5001362;28;4934;-56
2023/02/20 04:54:11;;;;;;;;;;;;;;;;;;5001999;28;4486;-56
2023/02/20 04:56:36;;;;;;;;;;;;;;;;;;5005910;28;3372;-56
2023/02/20 04:59:01;;;;;;;;;;;;;;;;;;4998855;28;5798;-56
2023/02/20 05:01:26;;;;;;;;;;;;;;;;;;4998946;28;5148;-56
2023/02/20 05:03:51;;;;;;;;;;;;;;;;;;5003566;28;5135;-56
2023/02/20 05:06:17;;;;;;;;;;;;;;;;;;5006325;28;5128;-56
2023/02/20 05:08:42;;;;;;;;;;;;;;;;;;5006470;28;3396;-57
2023/02/20 05:11:07;;;;;;;;;;;;;;;;;;5006146;28;4858;-57
2023/02/20 05:13:32;;;;;;;;;;;;;;;;;;4999705;28;5291;-56
2023/02/20 05:15:58;;;;;;;;;;;;;;;;;;4997620;28;5588;-57
2023/02/20 05:18:26;;;;;;;;;;;;;;;;;;4997518;28;5112;-57
2023/02/20 05:23:35;;;;;;;;;;;;;;;;;;5004242;28;3408;-56
2023/02/20 05:26:00;;;;;;;;;;;;;;;;;;5006394;28;4952;-56
2023/02/20 05:28:26;;;;;;;;;;;;;;;;;;5005901;28;5024;-56
2023/02/20 05:30:51;;;;;;;;;;;;;;;;;;5008372;28;5158;-56
2023/02/20 05:33:16;;;;;;;;;;;;;;;;;;5008857;28;4665;-56
2023/02/20 05:35:41;;;;;;;;;;;;;;;;;;5004927;28;3402;-57
2023/02/20 05:38:07;;;;;;;;;;;;;;;;;;5002360;28;5019;-57
2023/02/20 05:40:32;;;;;;;;;;;;;;;;;;5006401;28;5147;-56
2023/02/20 05:42:57;;;;;;;;;;;;;;;;;;4999804;28;5127;-56
2023/02/20 05:45:23;;;;;;;;;;;;;;;;;;5007696;28;4630;-56
2023/02/20 05:47:48;;;;;;;;;;;;;;;;;;5007944;28;4989;-56
2023/02/20 05:50:13;;;;;;;;;;;;;;;;;;5003771;28;3658;-57
2023/02/20 05:52:38;;;;;;;;;;;;;;;;;;5002077;28;4983;-56
2023/02/20 05:55:04;;;;;;;;;;;;;;;;;;5001582;28;5009;-56
2023/02/20 05:57:29;;;;;;;;;;;;;;;;;;5002782;28;4708;-56
2023/02/20 05:59:54;;;;;;;;;;;;;;;;;;4990070;28;5132;-56
2023/02/20 06:02:20;;;;;;;;;;;;;;;;;;5002133;28;3598;-57
2023/02/20 06:04:45;;;;;;;;;;;;;;;;;;5006101;28;4871;-56
2023/02/20 06:07:10;;;;;;;;;;;;;;;;;;5007541;28;4498;-57
2023/02/20 06:09:35;;;;;;;;;;;;;;;;;;5010438;28;4523;-57
2023/02/20 06:12:01;;;;;;;;;;;;;;;;;;5002837;28;5723;-57
2023/02/20 06:14:26;;;;;;;;;;;;;;;;;;5003122;28;3419;-55
2023/02/20 06:16:51;;;;;;;;;;;;;;;;;;5003866;28;5067;-56
2023/02/20 06:19:21;;;;;;;;;;;;;;;;;;5005457;28;5118;-56
2023/02/20 06:21:46;;;;;;;;;;;;;;;;;;4998530;28;5203;-55
2023/02/20 06:24:11;;;;;;;;;;;;;;;;;;4996251;28;5146;-56
2023/02/20 06:26:40;;;;;;;;;;;;;;;;;;5004574;28;3104;-57
2023/02/20 06:29:05;;;;;;;;;;;;;;;;;;5001901;28;4985;-57
2023/02/20 06:31:30;;;;;;;;;;;;;;;;;;4995943;28;4525;-56
2023/02/20 06:33:56;;;;;;;;;;;;;;;;;;4992624;28;4987;-56
2023/02/20 06:36:22;;;;;;;;;;;;;;;;;;5000644;28;4498;-56
2023/02/20 06:38:47;;;;;;;;;;;;;;;;;;5001944;28;5258;-56
2023/02/20 06:41:13;;;;;;;;;;;;;;;;;;5002389;28;3518;-57
2023/02/20 06:43:38;;;;;;;;;;;;;;;;;;4996303;28;4523;-56
2023/02/20 06:46:03;;;;;;;;;;;;;;;;;;5008656;28;5116;-56
2023/02/20 06:48:28;;;;;;;;;;;;;;;;;;4992607;28;4869;-54
2023/02/20 06:50:55;;;;;;;;;;;;;;;;;;4999567;28;5162;-56
2023/02/20 06:53:20;;;;;;;;;;;;;;;;;;4996930;28;3570;-56
2023/02/20 06:55:45;;;;;;;;;;;;;;;;;;4988067;28;5385;-57
2023/02/20 06:58:10;;;;;;;;;;;;;;;;;;5005135;28;5008;-56
2023/02/20 07:00:36;;;;;;;;;;;;;;;;;;4978621;28;4521;-56
2023/02/20 07:03:01;;;;;;;;;;;;;;;;;;5004582;28;5064;-56
2023/02/20 07:05:28;;;;;;;;;;;;;;;;;;5006297;28;3466;-56
2023/02/20 07:07:53;;;;;;;;;;;;;;;;;;5003995;28;5313;-57
2023/02/20 07:10:18;;;;;;;;;;;;;;;;;;4999438;28;5056;-56
2023/02/20 07:12:44;;;;;;;;;;;;;;;;;;5009660;28;5144;-56
2023/02/20 07:15:09;;;;;;;;;;;;;;;;;;5005700;28;5120;-56
2023/02/20 07:17:34;;;;;;;;;;;;;;;;;;5006793;28;1257;-57
2023/02/20 07:19:59;;;;;;;;;;;;;;;;;;5003779;28;4929;-56
2023/02/20 07:22:25;;;;;;;;;;;;;;;;;;5001733;28;4532;-57
2023/02/20 07:24:50;;;;;;;;;;;;;;;;;;4999002;28;5059;-56
2023/02/20 07:27:16;;;;;;;;;;;;;;;;;;5009696;28;5075;-56
2023/02/20 07:29:43;;;;;;;;;;;;;;;;;;5012849;28;4756;-57
2023/02/20 07:32:09;;;;;;;;;;;;;;;;;;5007423;28;4960;-56
2023/02/20 07:34:34;;;;;;;;;;;;;;;;;;4996105;28;5325;-56
2023/02/20 07:36:59;;;;;;;;;;;;;;;;;;4996646;28;5283;-56
2023/02/20 07:39:25;;;;;;;;;;;;;;;;;;5004240;28;4907;-56
2023/02/20 07:41:50;;;;;;;;;;;;;;;;;;5001307;28;4528;-55
2023/02/20 07:44:16;;;;;;;;;;;;;;;;;;5006501;28;1253;-56
2023/02/20 07:46:41;;;;;;;;;;;;;;;;;;5000546;28;5506;-56
2023/02/20 07:49:06;;;;;;;;;;;;;;;;;;4998456;28;4504;-55
2023/02/20 07:51:31;;;;;;;;;;;;;;;;;;4999705;28;5108;-56
2023/02/20 07:53:57;;;;;;;;;;;;;;;;;;5003165;28;5020;-56
2023/02/20 07:56:22;;;;;;;;;;;;;;;;;;5005751;28;1224;-56
2023/02/20 07:58:48;;;;;;;;;;;;;;;;;;5009044;28;4459;-56
2023/02/20 08:01:13;;;;;;;;;;;;;;;;;;5004887;28;4862;-55
2023/02/20 08:03:38;;;;;;;;;;;;;;;;;;5001541;28;4586;-53
2023/02/20 08:06:04;;;;;;;;;;;;;;;;;;5004239;28;5377;-54
2023/02/20 08:08:29;;;;;;;;;;;;;;;;;;5001747;28;3277;-52
2023/02/20 08:10:54;;;;;;;;;;;;;;;;;;5007828;28;5125;-55
2023/02/20 08:13:19;;;;;;;;;;;;;;;;;;5008024;28;5122;-55
2023/02/20 08:15:46;;;;;;;;;;;;;;;;;;5004946;28;4446;-56
2023/02/20 08:18:12;;;;;;;;;;;;;;;;;;5001279;28;5092;-54
2023/02/20 08:20:37;;;;;;;;;;;;;;;;;;5005679;28;3285;-55
2023/02/20 08:23:04;;;;;;;;;;;;;;;;;;4998309;28;4577;-58
2023/02/20 08:25:29;;;;;;;;;;;;;;;;;;5006650;28;4565;-56
2023/02/20 08:27:55;;;;;;;;;;;;;;;;;;5000092;28;5050;-57
2023/02/20 08:30:22;;;;;;;;;;;;;;;;;;5000974;28;5021;-56
2023/02/20 08:32:48;;;;;;;;;;;;;;;;;;5001632;28;5159;-57
2023/02/20 08:35:14;;;;;;;;;;;;;;;;;;5008803;28;3269;-55
2023/02/20 08:37:39;;;;;;;;;;;;;;;;;;5000640;28;5143;-55
2023/02/20 08:40:07;;;;;;;;;;;;;;;;;;5002108;28;5347;-53
2023/02/20 08:42:33;;;;;;;;;;;;;;;;;;5005924;28;4945;-55
2023/02/20 08:44:58;;;;;;;;;;;;;;;;;;4993549;28;5053;-58
2023/02/20 08:47:23;;;;;;;;;;;;;;;;;;4999559;28;3443;-53
2023/02/20 08:49:48;;;;;;;;;;;;;;;;;;5000688;28;4475;-54
2023/02/20 08:52:14;;;;;;;;;;;;;;;;;;5007166;28;5454;-51
2023/02/20 08:54:39;;;;;;;;;;;;;;;;;;4999404;28;5236;-51
2023/02/20 08:57:04;;;;;;;;;;;;;;;;;;5010063;28;4875;-55
2023/02/20 08:59:30;;;;;;;;;;;;;;;;;;5004732;28;1261;-55
2023/02/20 09:01:55;;;;;;;;;;;;;;;;;;5007323;28;4981;-53
2023/02/20 09:04:22;;;;;;;;;;;;;;;;;;4995621;28;4902;-55
2023/02/20 09:06:47;;;;;;;;;;;;;;;;;;5008605;28;5004;-55
2023/02/20 09:09:13;;;;;;;;;;;;;;;;;;5004798;28;5077;-54
2023/02/20 09:11:38;;;;;;;;;;;;;;;;;;4999087;28;3594;-72
2023/02/20 09:14:03;;;;;;;;;;;;;;;;;;4993762;28;4969;-72
2023/02/20 09:16:28;;;;;;;;;;;;;;;;;;4999008;28;5073;-73
2023/02/20 09:18:54;;;;;;;;;;;;;;;;;;5013790;28;4861;-68
2023/02/20 09:21:20;;;;;;;;;;;;;;;;;;5005022;28;4669;-68
2023/02/20 09:23:45;;;;;;;;;;;;;;;;;;5002786;28;5108;-65
2023/02/20 09:26:10;;;;;;;;;;;;;;;;;;5008315;28;3321;-67
2023/02/20 09:28:35;;;;;;;;;;;;;;;;;;5008372;28;5240;-66
2023/02/20 09:31:01;;;;;;;;;;;;;;;;;;5014511;28;5030;-70
2023/02/20 09:33:26;;;;;;;;;;;;;;;;;;5006820;28;5042;-70
2023/02/20 09:35:53;;;;;;;;;;;;;;;;;;5011267;28;5075;-68
2023/02/20 09:38:19;;;;;;;;;;;;;;;;;;5013874;28;1149;-70
2023/02/20 09:40:45;;;;;;;;;;;;;;;;;;5003332;28;5234;-70
2023/02/20 09:43:16;;;;;;;;;;;;;;;;;;5003735;28;5463;-69
2023/02/20 09:45:43;;;;;;;;;;;;;;;;;;5002399;28;5103;-66
2023/02/20 09:48:17;;;;;;;;;;;;;;;;;;4990484;28;5515;-66
2023/02/20 09:50:43;;;;;;;;;;;;;;;;;;5008989;28;1351;-66
2023/02/20 09:53:27;;;;;;;;;;;;;;;;;;5005745;28;4978;-64
2023/02/20 09:55:52;;;;;;;;;;;;;;;;;;5013482;28;4963;-69
2023/02/20 09:58:20;;;;;;;;;;;;;;;;;;4989095;28;4687;-69
2023/02/20 10:00:45;;;;;;;;;;;;;;;;;;5014303;28;5051;-63
2023/02/20 10:03:17;;;;;;;;;;;;;;;;;;5009306;28;4517;-64
2023/02/20 10:05:43;;;;;;;;;;;;;;;;;;5004908;28;3485;-65
2023/02/20 10:08:09;;;;;;;;;;;;;;;;;;4990954;28;4936;-65
2023/02/20 10:10:37;;;;;;;;;;;;;;;;;;5009032;28;4954;-62
2023/02/20 10:13:26;;;;;;;;;;;;;;;;;;5009869;28;4540;-67
2023/02/20 10:15:59;;;;;;;;;;;;;;;;;;5000557;28;4492;-68
2023/02/20 10:18:25;;;;;;;;;;;;;;;;;;4999992;28;4878;-68
2023/02/20 10:20:56;;;;;;;;;;;;;;;;;;5004374;28;4492;-69
2023/02/20 10:23:28;;;;;;;;;;;;;;;;;;4998357;28;1914;-69
2023/02/20 10:25:54;;;;;;;;;;;;;;;;;;4999897;28;4922;-67
2023/02/20 10:28:22;;;;;;;;;;;;;;;;;;5010382;28;5040;-66
2023/02/20 10:31:10;;;;;;;;;;;;;;;;;;5001373;28;5091;-66
2023/02/20 10:33:37;;;;;;;;;;;;;;;;;;4972794;28;5105;-65
2023/02/20 10:36:08;;;;;;;;;;;;;;;;;;4998363;28;5021;-66
2023/02/20 10:38:36;;;;;;;;;;;;;;;;;;5006636;28;1077;-66
2023/02/20 10:41:06;;;;;;;;;;;;;;;;;;4998100;28;4437;-68
2023/02/20 10:43:48;;;;;;;;;;;;;;;;;;5005060;28;5211;-65
2023/02/20 10:46:24;;;;;;;;;;;;;;;;;;5004384;28;4531;-67
2023/02/20 10:48:49;;;;;;;;;;;;;;;;;;4999917;28;5159;-66
2023/02/20 10:51:25;;;;;;;;;;;;;;;;;;5005551;28;4507;-67
2023/02/20 10:53:53;;;;;;;;;;;;;;;;;;5009043;28;4473;-66
2023/02/20 10:56:19;;;;;;;;;;;;;;;;;;5004777;28;1170;-67
2023/02/20 10:58:51;;;;;;;;;;;;;;;;;;5014035;28;5008;-66
2023/02/20 11:01:19;;;;;;;;;;;;;;;;;;4985880;28;5200;-66
2023/02/20 11:03:59;;;;;;;;;;;;;;;;;;4998708;28;5104;-65
2023/02/20 11:06:26;;;;;;;;;;;;;;;;;;5003223;28;5056;-66
2023/02/20 11:08:51;;;;;;;;;;;;;;;;;;4984076;28;5063;-65
2023/02/20 11:11:17;;;;;;;;;;;;;;;;;;5001601;28;1267;-65
2023/02/20 11:13:42;;;;;;;;;;;;;;;;;;5009925;28;5014;-67
2023/02/20 11:16:08;;;;;;;;;;;;;;;;;;5005643;28;5114;-64
2023/02/20 11:18:37;;;;;;;;;;;;;;;;;;5005216;28;5171;-66
2023/02/20 11:21:02;;;;;;;;;;;;;;;;;;4994640;28;5036;-65
2023/02/20 11:23:40;;;;;;;;;;;;;;;;;;4994219;28;1938;-64
2023/02/20 11:26:13;;;;;;;;;;;;;;;;;;5004877;28;4962;-65
2023/02/20 11:28:39;;;;;;;;;;;;;;;;;;5004896;28;4645;-68
2023/02/20 11:31:04;;;;;;;;;;;;;;;;;;5001621;28;4981;-66
2023/02/20 11:33:30;;;;;;;;;;;;;;;;;;4980741;28;5000;-69
2023/02/20 11:35:56;;;;;;;;;;;;;;;;;;4996363;28;4553;-67
2023/02/20 11:38:21;;;;;;;;;;;;;;;;;;5006490;28;1224;-67
2023/02/20 11:40:47;;;;;;;;;;;;;;;;;;5000675;28;4477;-69
2023/02/20 11:43:13;;;;;;;;;;;;;;;;;;4989967;28;5581;-67
2023/02/20 11:45:38;;;;;;;;;;;;;;;;;;5006572;28;4968;-63
2023/02/20 11:48:08;;;;;;;;;;;;;;;;;;5002435;28;4929;-69
2023/02/20 11:50:43;;;;;;;;;;;;;;;;;;5001617;28;1119;-66
2023/02/20 11:53:28;;;;;;;;;;;;;;;;;;5001428;28;4913;-66
2023/02/20 11:56:06;;;;;;;;;;;;;;;;;;5004691;28;4487;-68
2023/02/20 11:58:31;;;;;;;;;;;;;;;;;;5003001;28;5145;-66
2023/02/20 12:00:56;;;;;;;;;;;;;;;;;;5004995;28;5104;-66
2023/02/20 12:03:27;;;;;;;;;;;;;;;;;;5002065;28;5135;-68
2023/02/20 12:05:52;;;;;;;;;;;;;;;;;;4998452;28;5197;-67
2023/02/20 12:08:29;;;;;;;;;;;;;;;;;;5005781;28;1281;-67
2023/02/20 12:10:55;;;;;;;;;;;;;;;;;;5002310;28;4991;-67
2023/02/20 12:13:21;;;;;;;;;;;;;;;;;;4990188;28;5210;-68
2023/02/20 12:16:05;;;;;;;;;;;;;;;;;;5005740;28;5067;-67
2023/02/20 12:18:51;;;;;;;;;;;;;;;;;;5000993;28;4475;-67
2023/02/20 12:21:23;;;;;;;;;;;;;;;;;;5004036;28;5086;-65
2023/02/20 12:24:08;;;;;;;;;;;;;;;;;;4999950;28;4533;-68
2023/02/20 12:26:41;;;;;;;;;;;;;;;;;;4974831;28;1404;-67
2023/02/20 12:29:26;;;;;;;;;;;;;;;;;;5003006;28;5007;-67
2023/02/20 12:32:07;;;;;;;;;;;;;;;;;;4996448;28;4444;-67
2023/02/20 12:34:35;;;;;;;;;;;;;;;;;;5006061;28;4927;-65
2023/02/20 12:37:09;;;;;;;;;;;;;;;;;;5004972;28;5610;-68
2023/02/20 12:39:48;;;;;;;;;;;;;;;;;;5001928;28;5110;-55
2023/02/20 12:42:23;;;;;;;;;;;;;;;;;;5002805;28;5117;-57
2023/02/20 12:44:58;;;;;;;;;;;;;;;;;;4982887;28;4614;-56
2023/02/20 12:47:29;;;;;;;;;;;;;;;;;;4999935;28;1366;-56
2023/02/20 12:49:57;;;;;;;;;;;;;;;;;;5001199;28;5607;-55
2023/02/20 12:52:27;;;;;;;;;;;;;;;;;;5002969;28;4985;-57
2023/02/20 12:54:52;;;;;;;;;;;;;;;;;;5005111;28;5120;-56
2023/02/20 12:57:39;;;;;;;;;;;;;;;;;;5008178;28;5059;-57
2023/02/20 13:00:14;;;;;;;;;;;;;;;;;;4970620;28;4648;-57
2023/02/20 13:02:47;;;;;;;;;;;;;;;;;;5006717;28;1909;-57
2023/02/20 13:05:15;;;;;;;;;;;;;;;;;;5011325;28;4431;-57
2023/02/20 13:07:50;;;;;;;;;;;;;;;;;;4989530;28;5018;-57
2023/02/20 13:10:16;;;;;;;;;;;;;;;;;;5007823;28;4956;-56
2023/02/20 13:12:42;;;;;;;;;;;;;;;;;;4998442;28;4895;-56
2023/02/20 13:15:26;;;;;;;;;;;;;;;;;;5004406;28;4968;-58
2023/02/20 13:17:57;;;;;;;;;;;;;;;;;;4994410;28;4890;-56
2023/02/20 13:20:23;;;;;;;;;;;;;;;;;;4999792;28;3273;-56
2023/02/20 13:23:01;;;;;;;;;;;;;;;;;;4994910;28;5097;-56
2023/02/20 13:25:30;;;;;;;;;;;;;;;;;;4997603;28;5144;-56
2023/02/20 13:28:03;;;;;;;;;;;;;;;;;;5003331;28;5046;-57
2023/02/20 13:30:32;;;;;;;;;;;;;;;;;;4991791;28;5214;-56
2023/02/20 13:33:11;;;;;;;;;;;;;;;;;;5008043;28;4521;-57
2023/02/20 13:35:39;;;;;;;;;;;;;;;;;;5001263;28;2301;-58
2023/02/20 13:38:08;;;;;;;;;;;;;;;;;;5008041;28;4839;-58
2023/02/20 13:40:34;;;;;;;;;;;;;;;;;;5001386;28;4883;-57
2023/02/20 13:43:26;;;;;;;;;;;;;;;;;;5006089;28;4624;-57
2023/02/20 13:46:02;;;;;;;;;;;;;;;;;;4999372;28;4977;-57
2023/02/20 13:48:27;;;;;;;;;;;;;;;;;;5007417;28;5088;-55
2023/02/20 13:51:13;;;;;;;;;;;;;;;;;;5009931;28;4568;-56
2023/02/20 13:53:39;;;;;;;;;;;;;;;;;;4970275;28;1390;-57
2023/02/20 13:56:04;;;;;;;;;;;;;;;;;;5007282;28;4811;-56
2023/02/20 13:58:29;;;;;;;;;;;;;;;;;;5011142;28;4653;-59
2023/02/20 14:00:54;;;;;;;;;;;;;;;;;;5007155;28;5025;-58
2023/02/20 14:03:21;;;;;;;;;;;;;;;;;;5002933;28;5214;-55
2023/02/20 14:05:59;;;;;;;;;;;;;;;;;;5011719;28;5517;-56
2023/02/20 14:08:24;;;;;;;;;;;;;;;;;;5011311;28;1426;-58
2023/02/20 14:10:50;;;;;;;;;;;;;;;;;;5014505;28;4956;-58
2023/02/20 14:13:19;;;;;;;;;;;;;;;;;;5004060;28;5074;-56
2023/02/20 14:15:45;;;;;;;;;;;;;;;;;;5008952;28;5118;-58
2023/02/20 14:18:23;;;;;;;;;;;;;;;;;;5000321;28;5109;-58
2023/02/20 14:20:49;;;;;;;;;;;;;;;;;;4988649;28;5058;-58
2023/02/20 14:23:23;;;;;;;;;;;;;;;;;;4993727;28;3359;-58
2023/02/20 14:25:52;;;;;;;;;;;;;;;;;;5001063;28;4686;-56
2023/02/20 14:28:17;;;;;;;;;;;;;;;;;;5004768;28;4742;-62
2023/02/20 14:30:42;;;;;;;;;;;;;;;;;;5007226;28;4634;-59
2023/02/20 14:33:23;;;;;;;;;;;;;;;;;;5003647;28;5094;-58
2023/02/20 14:35:53;;;;;;;;;;;;;;;;;;4996527;28;4533;-59
2023/02/20 14:38:27;;;;;;;;;;;;;;;;;;5005361;28;3310;-59
2023/02/20 14:40:52;;;;;;;;;;;;;;;;;;4995686;28;5098;-58
2023/02/20 14:43:19;;;;;;;;;;;;;;;;;;5002837;28;5063;-59
2023/02/20 14:45:44;;;;;;;;;;;;;;;;;;4999640;28;4740;-59
2023/02/20 14:48:23;;;;;;;;;;;;;;;;;;4999868;28;4981;-59
2023/02/20 14:51:01;;;;;;;;;;;;;;;;;;4984730;28;5184;-60
2023/02/20 14:53:26;;;;;;;;;;;;;;;;;;4994524;28;1495;-60
2023/02/20 14:55:51;;;;;;;;;;;;;;;;;;5005751;28;5252;-59
2023/02/20 14:58:17;;;;;;;;;;;;;;;;;;4989519;28;4979;-60
2023/02/20 15:00:43;;;;;;;;;;;;;;;;;;5009951;28;4467;-59
2023/02/20 15:03:18;;;;;;;;;;;;;;;;;;4998214;28;4698;-60
2023/02/20 15:05:43;;;;;;;;;;;;;;;;;;4992874;28;3286;-60
2023/02/20 15:08:12;;;;;;;;;;;;;;;;;;5016063;28;4921;-59
2023/02/20 15:10:38;;;;;;;;;;;;;;;;;;4993209;28;4438;-60
2023/02/20 15:13:07;;;;;;;;;;;;;;;;;;5004867;28;5081;-63
2023/02/20 15:15:33;;;;;;;;;;;;;;;;;;4999193;28;5033;-61
2023/02/20 15:18:05;;;;;;;;;;;;;;;;;;4997406;28;5501;-59
2023/02/20 15:20:30;;;;;;;;;;;;;;;;;;5010192;28;2965;-59
2023/02/20 15:23:18;;;;;;;;;;;;;;;;;;4995114;28;4447;-59
2023/02/20 15:25:44;;;;;;;;;;;;;;;;;;4986740;28;4627;-60
2023/02/20 15:28:18;;;;;;;;;;;;;;;;;;4997952;28;4962;-59
2023/02/20 15:30:59;;;;;;;;;;;;;;;;;;4992043;28;4841;-58
2023/02/20 15:33:24;;;;;;;;;;;;;;;;;;4999585;28;5032;-59
2023/02/20 15:35:49;;;;;;;;;;;;;;;;;;5005569;28;4829;-59
2023/02/20 15:38:14;;;;;;;;;;;;;;;;;;5010154;28;1137;-59
2023/02/20 15:40:40;;;;;;;;;;;;;;;;;;5005817;28;5115;-59
2023/02/20 15:43:09;;;;;;;;;;;;;;;;;;4997867;28;4846;-59
2023/02/20 15:45:36;;;;;;;;;;;;;;;;;;4982772;28;4945;-59
2023/02/20 15:48:01;;;;;;;;;;;;;;;;;;5003487;28;5269;-59
2023/02/20 15:50:26;;;;;;;;;;;;;;;;;;5000906;28;3382;-56
2023/02/20 15:52:52;;;;;;;;;;;;;;;;;;5006595;28;4928;-63
2023/02/20 15:55:19;;;;;;;;;;;;;;;;;;5000315;28;5197;-64
2023/02/20 15:57:44;;;;;;;;;;;;;;;;;;4993776;28;4625;-65
2023/02/20 16:00:16;;;;;;;;;;;;;;;;;;5012271;28;4779;-67
2023/02/20 16:02:41;;;;;;;;;;;;;;;;;;4995466;28;3446;-63
2023/02/20 16:05:07;;;;;;;;;;;;;;;;;;5011266;28;4808;-63
2023/02/20 16:07:32;;;;;;;;;;;;;;;;;;5012848;28;5035;-59
2023/02/20 16:09:57;;;;;;;;;;;;;;;;;;4998465;28;5240;-58
2023/02/20 16:12:24;;;;;;;;;;;;;;;;;;4996668;28;4510;-60
2023/02/20 16:14:52;;;;;;;;;;;;;;;;;;4999292;28;5093;-59
2023/02/20 16:17:21;;;;;;;;;;;;;;;;;;5005874;28;3335;-60
2023/02/20 16:19:47;;;;;;;;;;;;;;;;;;4998247;28;4506;-57
2023/02/20 16:22:12;;;;;;;;;;;;;;;;;;4994643;28;5058;-57
2023/02/20 16:24:39;;;;;;;;;;;;;;;;;;4989118;28;5300;-57
2023/02/20 16:27:04;;;;;;;;;;;;;;;;;;5001926;28;5172;-56
2023/02/20 16:29:31;;;;;;;;;;;;;;;;;;4997158;28;4672;-57
2023/02/20 16:31:59;;;;;;;;;;;;;;;;;;4995769;28;5037;-57
2023/02/20 16:34:25;;;;;;;;;;;;;;;;;;4994005;28;5239;-58
2023/02/20 16:36:51;;;;;;;;;;;;;;;;;;5002583;28;5037;-57
2023/02/20 16:39:16;;;;;;;;;;;;;;;;;;4996483;28;4496;-57
2023/02/20 16:41:41;;;;;;;;;;;;;;;;;;5001138;28;3341;-58
2023/02/20 16:44:13;;;;;;;;;;;;;;;;;;5002524;28;4633;-57
2023/02/20 16:46:39;;;;;;;;;;;;;;;;;;4996587;28;4409;-57
2023/02/20 16:49:04;;;;;;;;;;;;;;;;;;5003956;28;5217;-57
2023/02/20 16:51:30;;;;;;;;;;;;;;;;;;4994403;28;4518;-57
2023/02/20 16:53:56;;;;;;;;;;;;;;;;;;4998727;28;4959;-57
2023/02/20 16:56:21;;;;;;;;;;;;;;;;;;5000560;28;3069;-57
2023/02/20 16:58:46;;;;;;;;;;;;;;;;;;4996508;28;4660;-57
2023/02/20 17:01:11;;;;;;;;;;;;;;;;;;5005011;28;4600;-57
2023/02/20 17:03:36;;;;;;;;;;;;;;;;;;5004162;28;7013;-58
2023/02/20 17:06:02;;;;;;;;;;;;;;;;;;4987675;28;4501;-58
2023/02/20 17:08:27;;;;;;;;;;;;;;;;;;4999206;28;3451;-57
2023/02/20 17:10:53;;;;;;;;;;;;;;;;;;4998413;28;5026;-57
2023/02/20 17:13:18;;;;;;;;;;;;;;;;;;5000077;28;5153;-59
2023/02/20 17:15:46;;;;;;;;;;;;;;;;;;4999834;28;5196;-59
2023/02/20 17:18:11;;;;;;;;;;;;;;;;;;5006442;28;4885;-57
2023/02/20 17:20:36;;;;;;;;;;;;;;;;;;5011720;28;1239;-57
2023/02/20 17:23:04;;;;;;;;;;;;;;;;;;5004048;28;4351;-57
2023/02/20 17:25:29;;;;;;;;;;;;;;;;;;5005103;28;5030;-57
2023/02/20 17:27:54;;;;;;;;;;;;;;;;;;4998428;28;4893;-57